Time;durP1;ratioP1;P1;durP2;ratioP2;P2;SDS_P1;SDS_P2;PMS_P1;PMS_P2;Temp;Humidity;BMP_temperature;BMP_pressure;BME280_temperature;BME280_humidity;BME280_pressure;Samples;Min_cycle;Max_cycle;Signal;HPM_P1;HPM_P2
2022/11/10 00:00:34;;;;;;;64.27;6.30;;;14.20;1.00;;;;;;5075734;28;20443;-79
2022/11/10 00:03:02;;;;;;;63.00;5.93;;;14.20;1.00;;;;;;5076898;28;20451;-79
2022/11/10 00:05:29;;;;;;;60.70;5.77;;;14.20;1.00;;;;;;5076660;28;20442;-79
2022/11/10 00:07:56;;;;;;;60.77;5.50;;;14.10;1.00;;;;;;5076821;28;20558;-79
2022/11/10 00:10:23;;;;;;;63.87;6.23;;;14.10;1.00;;;;;;5076091;28;20462;-79
2022/11/10 00:12:52;;;;;;;62.83;5.57;;;13.90;1.00;;;;;;5076238;28;20515;-79
2022/11/10 00:18:04;;;;;;;64.30;5.40;;;13.80;1.00;;;;;;5076797;28;20442;-79
2022/11/10 00:20:31;;;;;;;60.57;5.47;;;13.60;1.00;;;;;;5075813;28;20447;-79
2022/11/10 00:22:58;;;;;;;63.90;5.93;;;13.60;1.00;;;;;;5076318;28;20455;-79
2022/11/10 00:25:25;;;;;;;62.53;5.27;;;13.70;1.00;;;;;;5077224;28;20453;-78
2022/11/10 00:27:53;;;;;;;62.47;5.90;;;13.80;1.00;;;;;;5077156;28;20491;-79
2022/11/10 00:30:19;;;;;;;61.00;5.63;;;14.00;1.00;;;;;;5076496;28;20458;-79
2022/11/10 00:32:47;;;;;;;61.20;5.53;;;13.90;1.00;;;;;;5076653;28;20911;-79
2022/11/10 00:35:14;;;;;;;62.40;5.93;;;13.80;1.00;;;;;;5076769;28;20860;-79
2022/11/10 00:37:40;;;;;;;66.37;6.27;;;13.90;1.00;;;;;;5076467;28;20467;-77
2022/11/10 00:40:08;;;;;;;65.50;5.80;;;13.90;1.00;;;;;;5075602;28;20969;-79
2022/11/10 00:42:35;;;;;;;61.67;5.27;;;14.00;1.00;;;;;;5077252;28;20444;-79
2022/11/10 00:45:04;;;;;;;61.80;5.30;;;13.90;1.00;;;;;;5076995;28;20546;-79
2022/11/10 00:47:31;;;;;;;66.43;6.10;;;14.00;1.00;;;;;;5076976;28;20573;-78
2022/11/10 00:49:58;;;;;;;64.83;5.30;;;14.00;1.00;;;;;;5076345;28;20462;-79
2022/11/10 00:52:24;;;;;;;63.17;5.60;;;14.10;1.00;;;;;;5079451;28;20506;-79
2022/11/10 00:54:51;;;;;;;65.60;5.90;;;14.10;1.00;;;;;;5080974;28;20457;-78
2022/11/10 00:57:18;;;;;;;63.77;5.50;;;14.20;1.00;;;;;;5080686;28;21062;-79
2022/11/10 00:59:45;;;;;;;62.00;5.20;;;14.10;1.00;;;;;;5080077;28;20458;-79
2022/11/10 01:02:13;;;;;;;62.10;5.53;;;14.20;1.00;;;;;;5085865;28;20514;-79
2022/11/10 01:04:40;;;;;;;60.90;4.90;;;14.10;1.00;;;;;;5088437;28;20538;-79
2022/11/10 01:07:06;;;;;;;59.67;5.23;;;14.00;1.00;;;;;;5087675;28;20573;-79
2022/11/10 01:09:33;;;;;;;62.17;5.40;;;14.00;1.00;;;;;;5089079;28;20518;-79
2022/11/10 01:12:00;;;;;;;63.53;5.67;;;13.90;1.00;;;;;;5082168;28;20510;-79
2022/11/10 01:14:27;;;;;;;62.33;5.67;;;13.90;1.00;;;;;;5080167;28;20451;-79
2022/11/10 01:16:54;;;;;;;65.77;5.70;;;13.70;1.00;;;;;;5080602;28;20447;-77
2022/11/10 01:19:22;;;;;;;61.33;6.17;;;13.70;1.00;;;;;;5079307;28;20482;-79
2022/11/10 01:21:51;;;;;;;67.73;6.20;;;13.80;1.00;;;;;;5080591;28;20443;-79
2022/11/10 01:24:20;;;;;;;65.33;5.70;;;13.80;1.00;;;;;;5081405;28;20459;-79
2022/11/10 01:26:47;;;;;;;62.40;5.50;;;13.80;1.00;;;;;;5081443;28;20486;-79
2022/11/10 01:29:14;;;;;;;62.20;5.60;;;13.70;1.00;;;;;;5081049;28;20471;-79
2022/11/10 01:31:41;;;;;;;65.97;6.40;;;13.80;1.00;;;;;;5082117;28;20446;-79
2022/11/10 01:34:08;;;;;;;61.20;5.00;;;13.80;1.00;;;;;;5083754;28;20507;-79
2022/11/10 01:36:36;;;;;;;65.53;6.10;;;13.70;1.00;;;;;;5079641;28;20443;-78
2022/11/10 01:39:03;;;;;;;65.43;6.03;;;13.60;1.00;;;;;;5085185;28;20473;-77
2022/11/10 01:41:29;;;;;;;62.50;5.43;;;13.60;1.00;;;;;;5088185;28;20447;-79
2022/11/10 01:44:15;;;;;;;59.70;4.97;;;13.40;1.00;;;;;;5091472;28;20493;-78
2022/11/10 01:46:42;;;;;;;64.97;5.50;;;13.20;1.00;;;;;;5093380;28;20538;-78
2022/11/10 01:49:10;;;;;;;69.00;7.40;;;13.30;1.00;;;;;;5094483;28;20478;-76
2022/11/10 01:51:45;;;;;;;63.90;5.73;;;13.00;1.00;;;;;;5096064;28;20451;-77
2022/11/10 01:54:15;;;;;;;68.03;5.33;;;12.90;1.00;;;;;;5096606;28;20485;-78
2022/11/10 01:56:47;;;;;;;66.47;5.20;;;13.10;1.00;;;;;;5095295;28;20443;-78
2022/11/10 01:59:19;;;;;;;62.43;4.70;;;13.20;1.00;;;;;;5093632;28;20474;-78
2022/11/10 02:01:48;;;;;;;61.67;5.90;;;13.20;1.00;;;;;;5094724;28;20990;-77
2022/11/10 02:04:19;;;;;;;61.30;5.20;;;13.30;1.00;;;;;;5092316;28;21017;-78
2022/11/10 02:06:49;;;;;;;62.67;6.10;;;13.20;1.00;;;;;;5093255;28;20514;-78
2022/11/10 02:09:16;;;;;;;67.90;5.93;;;13.20;1.00;;;;;;5093566;28;20468;-76
2022/11/10 02:11:44;;;;;;;68.77;6.00;;;13.10;1.00;;;;;;5093634;28;21097;-78
2022/11/10 02:14:13;;;;;;;62.63;5.40;;;13.00;1.00;;;;;;5094324;28;20443;-77
2022/11/10 02:16:40;;;;;;;64.23;5.73;;;12.80;1.00;;;;;;5095063;28;20935;-77
2022/11/10 02:19:19;;;;;;;68.00;6.00;;;12.80;1.00;;;;;;5090440;28;20502;-78
2022/11/10 02:21:47;;;;;;;61.67;6.07;;;12.90;1.00;;;;;;5095473;28;20440;-76
2022/11/10 02:24:14;;;;;;;70.40;6.50;;;12.90;1.00;;;;;;5095612;28;20475;-76
2022/11/10 02:26:45;;;;;;;62.53;5.30;;;12.90;1.00;;;;;;5095366;28;20514;-76
2022/11/10 02:29:12;;;;;;;68.40;5.60;;;12.90;1.00;;;;;;5094989;28;20515;-76
2022/11/10 02:31:39;;;;;;;60.90;5.20;;;12.70;1.00;;;;;;5096317;28;20431;-77
2022/11/10 02:34:06;;;;;;;62.27;5.60;;;12.80;1.00;;;;;;5095684;28;20936;-77
2022/11/10 02:36:33;;;;;;;61.27;6.07;;;12.90;1.00;;;;;;5096287;28;20496;-77
2022/11/10 02:39:01;;;;;;;66.57;6.47;;;13.00;1.00;;;;;;5094470;28;20475;-78
2022/11/10 02:41:28;;;;;;;62.97;6.73;;;13.00;1.00;;;;;;5095975;28;20531;-77
2022/11/10 02:43:55;;;;;;;61.43;5.37;;;13.00;1.00;;;;;;5095890;28;20515;-77
2022/11/10 02:46:22;;;;;;;62.17;5.40;;;13.00;1.00;;;;;;5096239;28;20756;-76
2022/11/10 02:48:49;;;;;;;66.63;5.40;;;13.00;1.00;;;;;;5094974;28;20895;-77
2022/11/10 02:51:16;;;;;;;60.47;5.57;;;13.00;1.00;;;;;;5096154;28;20438;-78
2022/11/10 02:53:42;;;;;;;63.53;6.03;;;13.00;1.00;;;;;;5096133;28;20482;-77
2022/11/10 02:56:11;;;;;;;67.00;5.63;;;13.00;1.00;;;;;;5095892;28;20458;-76
2022/11/10 02:58:37;;;;;;;61.17;5.97;;;13.00;1.00;;;;;;5094826;28;20489;-79
2022/11/10 03:01:05;;;;;;;61.60;5.50;;;13.00;1.00;;;;;;5094941;28;20475;-78
2022/11/10 03:03:32;;;;;;;64.80;5.40;;;12.90;1.00;;;;;;5094494;28;20453;-78
2022/11/10 03:06:00;;;;;;;65.53;5.70;;;12.90;1.00;;;;;;5093264;28;20475;-77
2022/11/10 03:08:26;;;;;;;64.30;5.50;;;12.80;1.00;;;;;;5093477;28;20491;-79
2022/11/10 03:10:55;;;;;;;64.17;6.33;;;12.80;1.00;;;;;;5092424;28;20475;-78
2022/11/10 03:13:24;;;;;;;64.83;5.60;;;12.80;1.00;;;;;;5093430;28;20483;-77
2022/11/10 03:15:51;;;;;;;64.47;6.40;;;12.70;1.00;;;;;;5091294;28;20448;-78
2022/11/10 03:18:18;;;;;;;62.73;6.40;;;12.60;1.00;;;;;;5092413;28;20463;-77
2022/11/10 03:20:47;;;;;;;63.63;5.83;;;12.70;1.00;;;;;;5091870;28;20495;-77
2022/11/10 03:23:15;;;;;;;64.13;5.70;;;12.60;1.00;;;;;;5093892;28;20487;-78
2022/11/10 03:25:42;;;;;;;67.90;6.53;;;12.60;1.00;;;;;;5092400;28;20435;-76
2022/11/10 03:28:09;;;;;;;66.07;6.30;;;12.60;1.00;;;;;;5092637;28;20505;-76
2022/11/10 03:30:38;;;;;;;63.03;6.23;;;12.80;1.00;;;;;;5090040;28;20471;-78
2022/11/10 03:33:05;;;;;;;63.70;5.80;;;12.80;1.00;;;;;;5090251;28;20479;-78
2022/11/10 03:35:32;;;;;;;62.97;6.70;;;12.70;1.00;;;;;;5089534;28;20515;-77
2022/11/10 03:37:59;;;;;;;65.37;6.43;;;12.80;1.00;;;;;;5091443;28;20474;-78
2022/11/10 03:40:26;;;;;;;67.20;7.10;;;12.60;1.00;;;;;;5084682;28;20511;-79
2022/11/10 03:42:53;;;;;;;65.10;6.67;;;12.70;1.00;;;;;;5085087;28;20455;-78
2022/11/10 03:45:20;;;;;;;66.87;6.80;;;12.80;1.00;;;;;;5085396;28;20458;-78
2022/11/10 03:47:49;;;;;;;63.10;6.10;;;12.80;1.00;;;;;;5083348;28;20569;-78
2022/11/10 03:50:16;;;;;;;65.83;6.23;;;12.60;1.00;;;;;;5080509;28;20541;-78
2022/11/10 03:52:45;;;;;;;67.53;6.60;;;12.60;1.00;;;;;;5079797;28;20515;-77
2022/11/10 03:55:13;;;;;;;65.27;6.50;;;12.60;1.00;;;;;;5078797;28;20970;-78
2022/11/10 03:57:40;;;;;;;66.67;6.50;;;12.70;1.00;;;;;;5079675;28;20581;-78
2022/11/10 04:00:09;;;;;;;65.87;6.67;;;12.80;1.00;;;;;;5076791;28;20458;-77
2022/11/10 04:02:35;;;;;;;66.97;5.90;;;12.90;1.00;;;;;;5076239;28;20452;-77
2022/11/10 04:10:36;;;;;;;65.97;6.47;;;13.00;1.00;;;;;;5073880;28;20422;-77
2022/11/10 04:15:47;;;;;;;66.40;5.50;;;13.20;1.00;;;;;;5073549;28;20427;-77
2022/11/10 04:18:23;;;;;;;63.20;6.07;;;13.30;1.00;;;;;;5073172;28;20509;-77
2022/11/10 04:20:52;;;;;;;61.27;5.70;;;13.40;1.00;;;;;;5072959;28;20481;-78
2022/11/10 04:23:26;;;;;;;65.80;6.00;;;13.40;1.00;;;;;;5073038;28;20458;-77
2022/11/10 04:28:38;;;;;;;66.60;6.30;;;13.40;1.00;;;;;;5071644;28;21023;-77
2022/11/10 04:31:05;;;;;;;61.77;6.37;;;13.00;1.00;;;;;;5072386;28;20520;-77
2022/11/10 04:33:32;;;;;;;60.90;5.70;;;13.10;1.00;;;;;;5072390;28;20447;-78
2022/11/10 04:36:00;;;;;;;67.23;6.93;;;13.10;1.00;;;;;;5072308;28;20469;-77
2022/11/10 04:38:26;;;;;;;61.60;5.60;;;13.10;1.00;;;;;;5071783;28;20469;-77
2022/11/10 04:40:53;;;;;;;63.77;6.30;;;13.10;1.00;;;;;;5071659;28;20456;-76
2022/11/10 04:43:20;;;;;;;64.50;6.17;;;13.10;1.00;;;;;;5071864;28;20797;-77
2022/11/10 04:45:47;;;;;;;65.93;6.87;;;13.00;1.00;;;;;;5071923;28;20954;-77
2022/11/10 04:48:14;;;;;;;64.13;6.20;;;13.00;1.00;;;;;;5071913;28;20483;-77
2022/11/10 04:50:41;;;;;;;62.43;5.70;;;12.90;1.00;;;;;;5071381;28;20447;-77
2022/11/10 04:53:09;;;;;;;70.77;5.77;;;12.80;1.00;;;;;;5071839;28;20458;-75
2022/11/10 04:55:40;;;;;;;62.27;6.10;;;12.70;1.00;;;;;;5071655;28;20443;-76
2022/11/10 04:58:06;;;;;;;64.87;6.57;;;12.60;1.00;;;;;;5071478;28;20467;-77
2022/11/10 05:00:34;;;;;;;62.77;6.10;;;12.50;1.00;;;;;;5070987;28;20477;-77
2022/11/10 05:03:01;;;;;;;62.00;5.80;;;12.40;1.00;;;;;;5071621;28;20453;-77
2022/11/10 05:05:28;;;;;;;70.60;7.03;;;12.30;1.00;;;;;;5071536;28;20451;-75
2022/11/10 05:07:55;;;;;;;62.17;7.07;;;12.10;1.00;;;;;;5071425;28;20494;-76
2022/11/10 05:10:24;;;;;;;65.90;6.70;;;12.00;1.00;;;;;;5070581;28;20461;-77
2022/11/10 05:12:53;;;;;;;63.40;5.80;;;11.90;1.00;;;;;;5071563;28;20451;-76
2022/11/10 05:15:20;;;;;;;62.00;5.87;;;11.80;1.00;;;;;;5071501;28;20443;-77
2022/11/10 05:17:48;;;;;;;65.30;6.30;;;11.50;1.00;;;;;;5071286;28;20468;-77
2022/11/10 05:20:15;;;;;;;65.70;6.50;;;11.30;1.00;;;;;;5070637;28;20867;-76
2022/11/10 05:22:45;;;;;;;62.47;6.03;;;11.40;1.00;;;;;;5071301;28;20461;-77
2022/11/10 05:25:11;;;;;;;68.80;7.30;;;11.50;1.00;;;;;;5071403;28;20447;-76
2022/11/10 05:27:40;;;;;;;63.40;6.50;;;11.60;1.00;;;;;;5071354;28;20496;-76
2022/11/10 05:30:08;;;;;;;66.73;7.33;;;11.70;1.00;;;;;;5070724;28;20455;-77
2022/11/10 05:32:37;;;;;;;68.17;6.83;;;11.70;1.00;;;;;;5071344;28;20454;-77
2022/11/10 05:35:04;;;;;;;64.83;6.80;;;11.70;1.00;;;;;;5070924;28;20447;-77
2022/11/10 05:37:31;;;;;;;66.13;7.43;;;11.60;1.00;;;;;;5070636;28;20561;-76
2022/11/10 05:39:58;;;;;;;68.10;6.37;;;11.50;1.00;;;;;;5074545;28;20450;-77
2022/11/10 05:42:26;;;;;;;62.40;6.67;;;11.50;1.00;;;;;;5074661;28;20453;-77
2022/11/10 05:44:54;;;;;;;64.00;6.40;;;11.40;1.00;;;;;;5074751;28;20459;-77
2022/11/10 05:47:21;;;;;;;68.00;6.80;;;11.40;1.00;;;;;;5074586;28;20493;-77
2022/11/10 05:49:47;;;;;;;79.90;6.60;;;11.40;1.00;;;;;;5073798;28;20530;-76
2022/11/10 05:52:14;;;;;;;69.20;7.33;;;11.30;1.00;;;;;;5074367;28;20447;-77
2022/11/10 05:54:41;;;;;;;62.10;6.43;;;11.20;1.00;;;;;;5074831;28;20447;-75
2022/11/10 05:57:08;;;;;;;65.93;6.63;;;11.20;1.00;;;;;;5074613;28;20538;-77
2022/11/10 05:59:35;;;;;;;63.93;6.97;;;11.10;1.00;;;;;;5073988;28;20460;-77
2022/11/10 06:02:03;;;;;;;63.93;6.90;;;11.00;1.00;;;;;;5074519;28;20461;-76
2022/11/10 06:04:30;;;;;;;62.60;6.30;;;11.00;1.00;;;;;;5074404;28;20450;-76
2022/11/10 06:06:57;;;;;;;62.80;5.90;;;10.90;1.00;;;;;;5074433;28;20538;-77
2022/11/10 06:09:23;;;;;;;62.07;6.00;;;10.80;1.00;;;;;;5073503;28;20573;-77
2022/11/10 06:11:50;;;;;;;65.10;7.43;;;10.70;1.00;;;;;;5074357;28;20447;-77
2022/11/10 06:14:17;;;;;;;65.13;6.80;;;10.60;1.00;;;;;;5074212;28;20449;-77
2022/11/10 06:16:44;;;;;;;65.70;6.63;;;10.50;1.00;;;;;;5074078;28;20453;-75
2022/11/10 06:19:12;;;;;;;65.33;6.60;;;10.50;1.00;;;;;;5072968;28;20835;-77
2022/11/10 06:21:39;;;;;;;60.60;6.43;;;10.50;1.00;;;;;;5074048;28;20443;-77
2022/11/10 06:24:06;;;;;;;63.17;7.40;;;10.50;1.00;;;;;;5074035;28;20518;-77
2022/11/10 06:26:33;;;;;;;64.47;7.43;;;10.50;1.00;;;;;;5073961;28;20541;-76
2022/11/10 06:29:00;;;;;;;65.20;7.33;;;10.50;1.00;;;;;;5072851;28;20490;-77
2022/11/10 06:31:27;;;;;;;65.37;7.10;;;10.50;1.00;;;;;;5073832;28;20447;-76
2022/11/10 06:33:54;;;;;;;64.13;7.60;;;10.50;1.00;;;;;;5073883;28;20450;-77
2022/11/10 06:36:22;;;;;;;62.50;7.30;;;10.50;1.00;;;;;;5074043;28;20553;-77
2022/11/10 06:38:49;;;;;;;67.80;7.87;;;10.50;1.00;;;;;;5073199;28;20474;-77
2022/11/10 06:41:16;;;;;;;70.07;8.20;;;10.50;1.00;;;;;;5073673;28;20454;-77
2022/11/10 06:43:43;;;;;;;65.13;7.17;;;10.50;1.00;;;;;;5073804;28;20814;-76
2022/11/10 06:46:12;;;;;;;63.60;7.77;;;10.50;1.00;;;;;;5073625;28;20457;-77
2022/11/10 06:48:39;;;;;;;64.87;7.00;;;10.40;1.00;;;;;;5072904;28;20493;-77
2022/11/10 06:51:06;;;;;;;67.27;7.43;;;10.50;1.00;;;;;;5073908;28;20993;-77
2022/11/10 06:53:34;;;;;;;62.50;7.57;;;10.60;1.00;;;;;;5073622;28;20458;-77
2022/11/10 06:56:01;;;;;;;64.70;10.13;;;10.60;1.00;;;;;;5073501;28;20446;-77
2022/11/10 06:58:27;;;;;;;67.80;11.53;;;10.70;1.00;;;;;;5073158;28;20573;-74
2022/11/10 07:00:54;;;;;;;70.07;9.90;;;10.70;1.00;;;;;;5072771;28;20458;-77
2022/11/10 07:03:21;;;;;;;68.03;8.70;;;10.80;1.00;;;;;;5073189;28;21065;-77
2022/11/10 07:05:48;;;;;;;65.80;9.60;;;11.00;1.00;;;;;;5073139;28;20534;-77
2022/11/10 07:08:16;;;;;;;65.03;9.50;;;11.10;1.00;;;;;;5072582;28;21007;-77
2022/11/10 07:10:45;;;;;;;64.50;7.73;;;11.20;1.00;;;;;;5072546;28;20538;-77
2022/11/10 07:13:12;;;;;;;64.10;8.17;;;11.40;1.00;;;;;;5072927;28;20443;-77
2022/11/10 07:15:38;;;;;;;64.60;8.57;;;11.50;1.00;;;;;;5073176;28;20444;-77
2022/11/10 07:18:05;;;;;;;69.90;8.60;;;11.60;1.00;;;;;;5072618;28;20467;-77
2022/11/10 07:20:32;;;;;;;66.40;9.03;;;11.70;1.00;;;;;;5072098;28;20461;-77
2022/11/10 07:23:00;;;;;;;65.10;8.70;;;11.80;1.00;;;;;;5072771;28;20465;-77
2022/11/10 07:25:28;;;;;;;68.30;9.07;;;11.90;1.00;;;;;;5055782;28;20445;-75
2022/11/10 07:27:57;;;;;;;67.53;9.60;;;11.90;1.00;;;;;;5053987;28;21060;-77
2022/11/10 07:30:25;;;;;;;64.97;9.60;;;12.00;1.00;;;;;;5052294;28;20864;-77
2022/11/10 07:33:03;;;;;;;65.67;9.30;;;12.10;1.00;;;;;;5052980;28;20459;-77
2022/11/10 07:35:30;;;;;;;63.87;8.70;;;12.10;1.00;;;;;;5053013;28;20462;-77
2022/11/10 07:38:00;;;;;;;65.87;8.70;;;12.10;1.00;;;;;;5052647;28;20470;-77
2022/11/10 07:40:27;;;;;;;66.40;8.97;;;12.10;1.00;;;;;;5051438;28;20444;-77
2022/11/10 07:42:55;;;;;;;65.53;9.07;;;11.70;1.00;;;;;;5054100;28;20463;-74
2022/11/10 07:45:22;;;;;;;67.47;9.27;;;11.00;1.00;;;;;;5072646;28;20483;-77
2022/11/10 07:47:50;;;;;;;65.60;9.10;;;11.00;1.00;;;;;;5080936;28;20526;-77
2022/11/10 07:50:17;;;;;;;70.10;8.90;;;11.10;1.00;;;;;;5077054;28;20955;-76
2022/11/10 07:52:44;;;;;;;63.47;9.00;;;11.20;1.00;;;;;;5078084;28;20455;-77
2022/11/10 07:55:11;;;;;;;72.77;10.00;;;11.50;1.00;;;;;;5076783;28;20455;-77
2022/11/10 07:57:38;;;;;;;65.20;8.83;;;11.30;1.00;;;;;;5072759;28;20468;-77
2022/11/10 08:00:11;;;;;;;64.47;8.30;;;11.40;1.00;;;;;;5072131;28;20482;-77
2022/11/10 08:02:38;;;;;;;66.23;9.10;;;11.20;1.00;;;;;;5072260;28;20948;-77
2022/11/10 08:05:05;;;;;;;70.67;8.83;;;11.00;1.00;;;;;;5072324;28;20454;-77
2022/11/10 08:07:32;;;;;;;68.67;8.60;;;11.00;1.00;;;;;;5071800;28;20476;-77
2022/11/10 08:09:59;;;;;;;65.50;9.90;;;11.40;1.00;;;;;;5070773;28;20995;-77
2022/11/10 08:12:25;;;;;;;66.10;9.43;;;11.60;1.00;;;;;;5071802;28;20855;-77
2022/11/10 08:14:52;;;;;;;69.40;9.80;;;11.70;1.00;;;;;;5071674;28;20448;-77
2022/11/10 08:17:20;;;;;;;65.00;9.80;;;11.70;1.00;;;;;;5071585;28;20463;-77
2022/11/10 08:19:47;;;;;;;72.50;10.13;;;11.40;1.00;;;;;;5070609;28;20913;-77
2022/11/10 08:22:14;;;;;;;65.77;9.80;;;11.10;1.00;;;;;;5071725;28;20840;-77
2022/11/10 08:24:41;;;;;;;66.77;10.37;;;11.00;1.00;;;;;;5072381;28;20451;-77
2022/11/10 08:27:07;;;;;;;68.93;10.90;;;11.00;1.00;;;;;;5072132;28;20454;-76
2022/11/10 08:29:34;;;;;;;68.90;10.60;;;11.20;1.00;;;;;;5071177;28;20968;-77
2022/11/10 08:32:01;;;;;;;66.17;9.97;;;11.60;1.00;;;;;;5071995;28;20545;-77
2022/11/10 08:34:29;;;;;;;68.00;9.50;;;11.80;1.00;;;;;;5071856;28;20899;-77
2022/11/10 08:36:56;;;;;;;67.40;10.00;;;12.00;1.00;;;;;;5071816;28;20447;-76
2022/11/10 08:39:23;;;;;;;64.83;9.30;;;11.80;1.00;;;;;;5071241;28;20440;-77
2022/11/10 08:41:49;;;;;;;65.40;9.47;;;11.60;1.00;;;;;;5071599;28;20462;-77
2022/11/10 08:44:16;;;;;;;67.07;10.00;;;11.70;1.00;;;;;;5071644;28;20447;-76
2022/11/10 08:46:43;;;;;;;63.33;9.67;;;11.90;1.00;;;;;;5071764;28;20449;-76
2022/11/10 08:49:10;;;;;;;64.20;9.20;;;12.00;1.00;;;;;;5070467;28;20493;-75
2022/11/10 08:51:38;;;;;;;66.63;9.47;;;11.90;1.00;;;;;;5071471;28;20455;-76
2022/11/10 08:54:05;;;;;;;65.43;9.33;;;12.30;1.00;;;;;;5071856;28;20454;-76
2022/11/10 08:56:32;;;;;;;64.57;9.03;;;12.60;1.00;;;;;;5071621;28;20443;-76
2022/11/10 08:58:58;;;;;;;66.83;9.20;;;12.90;1.00;;;;;;5070717;28;20983;-76
2022/11/10 09:01:25;;;;;;;67.23;9.00;;;13.10;1.00;;;;;;5071592;28;20456;-77
2022/11/10 09:03:52;;;;;;;62.77;7.77;;;13.30;1.00;;;;;;5071810;28;20868;-76
2022/11/10 09:06:19;;;;;;;65.17;8.40;;;13.40;1.00;;;;;;5071823;28;20458;-76
2022/11/10 09:08:47;;;;;;;69.20;9.23;;;13.70;1.00;;;;;;5070898;28;20483;-76
2022/11/10 09:11:14;;;;;;;66.00;8.87;;;13.60;1.00;;;;;;5071600;28;20447;-76
2022/11/10 09:13:41;;;;;;;63.93;8.10;;;13.60;1.00;;;;;;5073181;28;20466;-75
2022/11/10 09:16:08;;;;;;;62.20;7.40;;;13.60;1.00;;;;;;5074949;28;20458;-76
2022/11/10 09:18:35;;;;;;;63.97;8.70;;;14.10;1.00;;;;;;5074525;28;20475;-76
2022/11/10 09:21:02;;;;;;;64.33;7.50;;;13.90;1.00;;;;;;5075204;28;20821;-76
2022/11/10 09:23:29;;;;;;;66.10;7.07;;;14.10;1.00;;;;;;5074860;28;20846;-75
2022/11/10 09:25:57;;;;;;;64.67;7.20;;;15.30;1.00;;;;;;5074991;28;20455;-75
2022/11/10 09:28:24;;;;;;;65.93;7.33;;;17.50;1.00;;;;;;5074930;28;20487;-75
2022/11/10 09:30:52;;;;;;;62.07;6.00;;;19.40;1.00;;;;;;5074079;28;20450;-76
2022/11/10 09:33:18;;;;;;;61.83;5.70;;;20.30;1.00;;;;;;5075070;28;20447;-76
2022/11/10 09:35:45;;;;;;;63.40;5.90;;;21.90;1.00;;;;;;5074747;28;20453;-75
2022/11/10 09:38:12;;;;;;;65.83;6.30;;;23.30;1.00;;;;;;5074756;28;20473;-75
2022/11/10 09:40:50;;;;;;;68.97;5.90;;;24.20;99.90;;;;;;5074534;28;20447;-76
2022/11/10 09:43:24;;;;;;;63.60;5.70;;;25.50;99.90;;;;;;5074640;28;20447;-76
2022/11/10 09:45:54;;;;;;;60.67;4.67;;;27.30;99.90;;;;;;5074643;28;20701;-73
2022/11/10 09:48:26;;;;;;;61.40;5.13;;;29.40;99.90;;;;;;5074281;28;20478;-75
2022/11/10 09:50:56;;;;;;;65.90;5.10;;;30.90;99.90;;;;;;5074719;28;20455;-75
2022/11/10 09:53:27;;;;;;;60.17;4.50;;;32.20;99.90;;;;;;5074555;28;20820;-76
2022/11/10 09:55:58;;;;;;;60.30;4.57;;;33.30;99.90;;;;;;5074380;28;20451;-76
2022/11/10 09:58:33;;;;;;;61.33;4.47;;;34.00;99.90;;;;;;5074213;28;20971;-75
2022/11/10 10:01:12;;;;;;;65.60;4.50;;;34.40;99.90;;;;;;5074410;28;20461;-73
2022/11/10 10:03:45;;;;;;;59.10;3.80;;;34.70;99.90;;;;;;5074422;28;20443;-73
2022/11/10 10:06:14;;;;;;;61.67;4.40;;;33.50;99.90;;;;;;5074251;28;20824;-75
2022/11/10 10:08:54;;;;;;;62.60;4.90;;;31.00;99.90;;;;;;5073458;28;20479;-76
2022/11/10 10:11:34;;;;;;;59.97;3.77;;;31.80;99.90;;;;;;5074255;28;20817;-75
2022/11/10 10:14:23;;;;;;;60.70;4.00;;;33.40;99.90;;;;;;5074516;28;20443;-76
2022/11/10 10:16:58;;;;;;;62.87;4.50;;;33.60;99.90;;;;;;5074267;28;20936;-76
2022/11/10 10:19:33;;;;;;;59.10;3.50;;;29.70;99.90;;;;;;5073881;28;20537;-75
2022/11/10 10:22:23;;;;;;;61.97;3.63;;;31.10;99.90;;;;;;5074214;28;20447;-76
2022/11/10 10:24:53;;;;;;;61.97;3.60;;;33.40;99.90;;;;;;5073694;28;20448;-76
2022/11/10 10:27:22;;;;;;;59.30;3.20;;;33.80;99.90;;;;;;5074430;28;20467;-73
2022/11/10 10:29:51;;;;;;;61.27;3.60;;;34.20;99.90;;;;;;5073442;28;20495;-73
2022/11/10 10:32:18;;;;;;;58.87;3.90;;;35.70;99.90;;;;;;5074129;28;20451;-74
2022/11/10 10:34:46;;;;;;;61.30;4.17;;;35.80;99.90;;;;;;5074182;28;20447;-74
2022/11/10 10:37:23;;;;;;;61.30;3.77;;;34.60;99.90;;;;;;5073843;28;20558;-73
2022/11/10 10:39:52;;;;;;;58.97;3.27;;;34.20;99.90;;;;;;5073739;28;20854;-74
2022/11/10 10:42:29;;;;;;;59.83;3.60;;;34.90;99.90;;;;;;5073961;28;20459;-74
2022/11/10 10:45:18;;;;;;;59.57;3.17;;;34.70;99.90;;;;;;5074304;28;20446;-74
2022/11/10 10:47:46;;;;;;;60.37;4.13;;;34.80;99.90;;;;;;5073901;28;20490;-75
2022/11/10 10:50:25;;;;;;;60.53;3.57;;;35.90;99.90;;;;;;5073433;28;20491;-76
2022/11/10 10:53:07;;;;;;;60.23;3.80;;;37.40;99.90;;;;;;5073755;28;20478;-76
2022/11/10 10:55:36;;;;;;;59.57;3.00;;;38.50;99.90;;;;;;5073282;28;20448;-76
2022/11/10 10:58:05;;;;;;;62.50;3.33;;;38.90;99.90;;;;;;5073168;28;20463;-76
2022/11/10 11:00:43;;;;;;;60.70;3.83;;;38.10;99.90;;;;;;5072422;28;20459;-74
2022/11/10 11:03:19;;;;;;;60.80;3.73;;;34.90;99.90;;;;;;5073125;28;20455;-74
2022/11/10 11:06:00;;;;;;;58.73;3.47;;;33.60;99.90;;;;;;5073191;28;20458;-73
2022/11/10 11:08:27;;;;;;;60.97;3.60;;;32.80;99.90;;;;;;5072827;28;20467;-74
2022/11/10 11:10:54;;;;;;;59.77;3.13;;;34.60;99.90;;;;;;5072330;28;21011;-74
2022/11/10 11:13:23;;;;;;;59.80;3.10;;;36.50;99.90;;;;;;5073107;28;20501;-74
2022/11/10 11:15:59;;;;;;;59.47;3.20;;;37.00;99.90;;;;;;5072936;28;20466;-72
2022/11/10 11:18:27;;;;;;;58.80;2.87;;;37.80;99.90;;;;;;5073074;28;20558;-71
2022/11/10 11:21:01;;;;;;;62.23;3.40;;;37.60;99.90;;;;;;5072209;28;20443;-71
2022/11/10 11:23:43;;;;;;;59.17;3.33;;;38.30;99.90;;;;;;5072692;28;20467;-72
2022/11/10 11:26:19;;;;;;;59.23;3.30;;;37.10;99.90;;;;;;5072961;28;20455;-72
2022/11/10 11:28:59;;;;;;;58.67;2.93;;;36.20;99.90;;;;;;5071900;28;20471;-72
2022/11/10 11:31:38;;;;;;;60.47;3.10;;;38.30;99.90;;;;;;5072629;28;20932;-72
2022/11/10 11:34:16;;;;;;;59.90;3.50;;;39.40;99.90;;;;;;5072902;28;20471;-72
2022/11/10 11:36:54;;;;;;;59.30;3.17;;;40.10;99.90;;;;;;5071875;28;20910;-72
2022/11/10 11:39:36;;;;;;;60.17;2.90;;;39.70;99.90;;;;;;5071793;28;20443;-72
2022/11/10 11:42:14;;;;;;;58.13;2.63;;;39.20;99.90;;;;;;5072553;28;20451;-72
2022/11/10 11:44:55;;;;;;;58.93;2.50;;;37.70;99.90;;;;;;5072506;28;20447;-72
2022/11/10 11:47:42;;;;;;;58.37;3.00;;;36.60;99.90;;;;;;5072339;28;20975;-72
2022/11/10 11:50:23;;;;;;;58.70;2.80;;;37.10;99.90;;;;;;5071489;28;20489;-72
2022/11/10 11:53:00;;;;;;;58.70;2.63;;;39.20;99.90;;;;;;5072490;28;20451;-72
2022/11/10 11:55:35;;;;;;;60.60;2.77;;;41.30;99.90;;;;;;5072566;28;20443;-72
2022/11/10 11:58:23;;;;;;;59.97;2.90;;;41.90;99.90;;;;;;5071864;28;20475;-72
2022/11/10 12:01:00;;;;;;;58.70;2.77;;;41.70;99.90;;;;;;5067938;28;20486;-71
2022/11/10 12:04:22;;;;;;;58.03;2.80;;;42.40;99.90;;;;;;5071267;28;20815;-72
2022/11/10 12:07:01;;;;;;;57.87;2.63;;;42.00;99.90;;;;;;5069398;28;20542;-72
2022/11/10 12:09:36;;;;;;;58.30;2.70;;;41.20;99.90;;;;;;5073492;28;20435;-72
2022/11/10 12:12:18;;;;;;;65.20;3.83;;;40.00;99.90;;;;;;5075166;28;20446;-74
2022/11/10 12:14:52;;;;;;;61.00;2.90;;;39.70;99.90;;;;;;5072036;28;20815;-74
2022/11/10 12:17:29;;;;;;;62.17;3.10;;;36.50;99.90;;;;;;5071699;28;20458;-74
2022/11/10 12:20:07;;;;;;;59.27;2.97;;;36.20;99.90;;;;;;5071217;28;20665;-73
2022/11/10 12:22:40;;;;;;;62.60;3.33;;;32.20;99.90;;;;;;5072089;28;20462;-74
2022/11/10 12:25:16;;;;;;;60.87;2.87;;;30.00;99.90;;;;;;5071390;28;20944;-74
2022/11/10 12:27:49;;;;;;;57.73;2.60;;;29.80;99.90;;;;;;5070329;28;20467;-73
2022/11/10 12:30:17;;;;;;;63.70;3.30;;;30.20;99.90;;;;;;5071156;28;20447;-73
2022/11/10 12:32:49;;;;;;;59.40;3.27;;;29.10;99.90;;;;;;5071800;28;20454;-73
2022/11/10 12:35:20;;;;;;;60.10;3.57;;;28.30;99.90;;;;;;5071792;28;20795;-73
2022/11/10 12:37:52;;;;;;;59.27;3.23;;;29.40;99.90;;;;;;5071730;28;20467;-73
2022/11/10 12:40:21;;;;;;;60.50;3.27;;;30.70;99.90;;;;;;5070715;28;20486;-74
2022/11/10 12:42:56;;;;;;;59.50;3.33;;;30.50;99.90;;;;;;5071593;28;20966;-73
2022/11/10 12:45:28;;;;;;;60.07;3.50;;;29.80;99.90;;;;;;5071685;28;20447;-74
2022/11/10 12:47:55;;;;;;;60.90;3.40;;;28.80;99.90;;;;;;5073910;28;20475;-73
2022/11/10 12:50:34;;;;;;;58.07;2.70;;;28.90;99.90;;;;;;5075130;28;20439;-74
2022/11/10 12:53:05;;;;;;;58.90;3.10;;;30.00;99.90;;;;;;5075887;28;20445;-74
2022/11/10 12:55:36;;;;;;;59.37;3.27;;;30.30;99.90;;;;;;5075940;28;20455;-74
2022/11/10 12:58:05;;;;;;;60.07;3.10;;;31.10;99.90;;;;;;5075665;28;20471;-73
2022/11/10 13:00:36;;;;;;;59.40;3.20;;;31.10;99.90;;;;;;5074796;28;20498;-74
2022/11/10 13:03:04;;;;;;;59.03;2.83;;;30.80;99.90;;;;;;5075467;28;20835;-73
2022/11/10 13:05:36;;;;;;;58.73;2.90;;;30.60;99.90;;;;;;5075569;28;20542;-74
2022/11/10 13:08:26;;;;;;;60.00;3.00;;;28.90;99.90;;;;;;5075376;28;20511;-73